Time;durP1;ratioP1;P1;durP2;ratioP2;P2;SDS_P1;SDS_P2;PMS_P1;PMS_P2;Temp;Humidity;BMP_temperature;BMP_pressure;BME280_temperature;BME280_humidity;BME280_pressure;Samples;Min_cycle;Max_cycle;Signal;HPM_P1;HPM_P2
2023/04/14 00:00:07;;;;;;;1999.90;999.90;;;9.20;99.90;;;;;;5068046;28;20911;-76
2023/04/14 00:02:35;;;;;;;1999.90;999.90;;;8.90;99.90;;;;;;5068438;28;20948;-76
2023/04/14 00:05:03;;;;;;;1999.90;999.90;;;8.60;99.90;;;;;;5066606;28;20489;-76
2023/04/14 00:07:29;;;;;;;1999.90;999.90;;;8.70;99.90;;;;;;5068192;28;20970;-77
2023/04/14 00:09:57;;;;;;;1999.90;999.90;;;8.60;99.90;;;;;;5066538;28;21251;-75
2023/04/14 00:12:24;;;;;;;1999.90;999.90;;;8.70;99.90;;;;;;5068292;28;20431;-76
2023/04/14 00:14:51;;;;;;;1999.90;999.90;;;8.80;99.90;;;;;;5067111;28;20450;-79
2023/04/14 00:17:17;;;;;;;1999.90;999.90;;;8.60;99.90;;;;;;5067410;28;20429;-78
2023/04/14 00:19:45;;;;;;;1999.90;999.90;;;8.70;99.90;;;;;;5066107;28;20431;-77
2023/04/14 00:22:12;;;;;;;1999.90;999.90;;;8.50;99.90;;;;;;5063557;28;20419;-77
2023/04/14 00:24:42;;;;;;;1999.90;999.90;;;8.70;99.90;;;;;;5066289;28;20480;-77
2023/04/14 00:27:10;;;;;;;1999.90;999.90;;;8.80;99.90;;;;;;5066666;28;21141;-77
2023/04/14 00:29:38;;;;;;;1999.90;999.90;;;8.90;99.90;;;;;;5071147;28;20431;-77
2023/04/14 00:32:05;;;;;;;1999.90;999.90;;;9.00;99.90;;;;;;5066677;28;20423;-77
2023/04/14 00:34:31;;;;;;;1999.90;999.90;;;9.10;99.90;;;;;;5071810;28;20556;-77
2023/04/14 00:36:58;;;;;;;1999.90;999.90;;;9.10;99.90;;;;;;5070052;28;20435;-77
2023/04/14 00:39:25;;;;;;;1999.90;999.90;;;9.10;99.90;;;;;;5072396;28;20427;-76
2023/04/14 00:41:52;;;;;;;1999.90;999.90;;;9.20;99.90;;;;;;5070731;28;20485;-77
2023/04/14 00:44:20;;;;;;;1999.90;999.90;;;9.30;99.90;;;;;;5070933;28;20465;-77
2023/04/14 00:46:47;;;;;;;1999.90;999.90;;;9.30;99.90;;;;;;5068018;28;20530;-77
2023/04/14 00:49:15;;;;;;;1999.90;999.90;;;9.30;99.90;;;;;;5070659;28;20491;-77
2023/04/14 00:51:42;;;;;;;1999.90;999.90;;;9.20;99.90;;;;;;5069034;28;20987;-77
2023/04/14 00:54:10;;;;;;;1999.90;999.90;;;9.20;99.90;;;;;;5068836;28;20493;-76
2023/04/14 00:56:37;;;;;;;1999.90;999.90;;;9.10;99.90;;;;;;5070888;28;20465;-77
2023/04/14 00:59:06;;;;;;;1999.90;999.90;;;9.20;99.90;;;;;;5071580;28;20435;-77
2023/04/14 01:01:36;;;;;;;1999.90;999.90;;;9.20;99.90;;;;;;5071346;28;20832;-78
2023/04/14 01:04:03;;;;;;;1999.90;999.90;;;9.20;99.90;;;;;;5070241;28;20467;-77
2023/04/14 01:06:29;;;;;;;1999.90;999.90;;;9.10;99.90;;;;;;5070030;28;20488;-77
2023/04/14 01:08:56;;;;;;;1999.90;999.90;;;9.10;99.90;;;;;;5071321;28;20435;-78
2023/04/14 01:11:31;;;;;;;1999.90;999.90;;;9.20;99.90;;;;;;5070102;28;20431;-77
2023/04/14 01:14:06;;;;;;;1999.90;999.90;;;9.20;99.90;;;;;;5069339;28;20979;-77
2023/04/14 01:16:38;;;;;;;1999.90;999.90;;;9.30;99.90;;;;;;5069586;28;20431;-77
2023/04/14 01:19:26;;;;;;;1999.90;999.90;;;9.30;99.90;;;;;;5069824;28;21107;-77
2023/04/14 01:22:01;;;;;;;1999.90;999.90;;;9.40;99.90;;;;;;5069636;28;20432;-77
2023/04/14 01:24:40;;;;;;;1999.90;999.90;;;9.40;99.90;;;;;;5066176;28;20541;-77
2023/04/14 01:27:24;;;;;;;1999.90;999.90;;;9.40;99.90;;;;;;5068870;28;20424;-77
2023/04/14 01:30:21;;;;;;;1999.90;999.90;;;9.40;99.90;;;;;;5069975;28;21009;-76
2023/04/14 01:32:53;;;;;;;1999.90;999.90;;;9.40;99.90;;;;;;5067152;28;20493;-77
2023/04/14 01:35:25;;;;;;;1999.90;999.90;;;9.40;99.90;;;;;;5069179;28;20852;-78
2023/04/14 01:37:54;;;;;;;1999.90;999.90;;;9.30;99.90;;;;;;5070167;28;20431;-79
2023/04/14 01:40:22;;;;;;;1999.90;999.90;;;9.40;99.90;;;;;;5062740;28;20487;-77
2023/04/14 01:42:58;;;;;;;1999.90;999.90;;;9.30;99.90;;;;;;5069751;28;20431;-77
2023/04/14 01:45:28;;;;;;;1999.90;999.90;;;9.30;99.90;;;;;;5070023;28;20816;-80
2023/04/14 01:47:58;;;;;;;1999.90;999.90;;;9.20;99.90;;;;;;5066868;28;20458;-77
2023/04/14 01:50:27;;;;;;;1999.90;999.90;;;9.00;99.90;;;;;;5069400;28;20496;-77
2023/04/14 01:52:54;;;;;;;1999.90;999.90;;;8.90;99.90;;;;;;5070151;28;20917;-77
2023/04/14 01:55:26;;;;;;;1999.90;999.90;;;8.80;99.90;;;;;;5068323;28;20428;-78
2023/04/14 01:57:54;;;;;;;1999.90;999.90;;;8.80;99.90;;;;;;5070074;28;20848;-76
2023/04/14 02:00:22;;;;;;;1999.90;999.90;;;8.90;99.90;;;;;;5070064;28;20459;-77
2023/04/14 02:02:51;;;;;;;1999.90;999.90;;;8.80;99.90;;;;;;5068763;28;20485;-77
2023/04/14 02:05:21;;;;;;;1999.90;999.90;;;8.80;99.90;;;;;;5068668;28;20550;-77
2023/04/14 02:07:50;;;;;;;1999.90;999.90;;;8.80;99.90;;;;;;5070245;28;20458;-77
2023/04/14 02:10:20;;;;;;;1999.90;999.90;;;8.90;99.90;;;;;;5068291;28;20522;-78
2023/04/14 02:12:47;;;;;;;1999.90;999.90;;;9.00;99.90;;;;;;5069094;28;20438;-77
2023/04/14 02:15:16;;;;;;;1999.90;999.90;;;9.00;99.90;;;;;;5069935;28;21019;-75
2023/04/14 02:17:46;;;;;;;1999.90;999.90;;;9.00;99.90;;;;;;5068806;28;20419;-77
2023/04/14 02:20:14;;;;;;;1999.90;999.90;;;9.00;99.90;;;;;;5065541;28;20481;-77
2023/04/14 02:22:42;;;;;;;1999.90;999.90;;;9.00;99.90;;;;;;5067833;28;20885;-77
2023/04/14 02:25:09;;;;;;;1999.90;999.90;;;9.00;99.90;;;;;;5067933;28;20437;-77
2023/04/14 02:27:40;;;;;;;1999.90;999.90;;;9.00;99.90;;;;;;5068389;28;20431;-77
2023/04/14 02:30:11;;;;;;;1999.90;999.90;;;9.00;99.90;;;;;;5069330;28;20775;-77
2023/04/14 02:32:43;;;;;;;1999.90;999.90;;;9.10;99.90;;;;;;5066509;28;20485;-77
2023/04/14 02:35:15;;;;;;;1999.90;999.90;;;8.90;99.90;;;;;;5070187;28;20432;-77
2023/04/14 02:37:50;;;;;;;1999.90;999.90;;;8.70;99.90;;;;;;5069700;28;20431;-77
2023/04/14 02:40:21;;;;;;;1999.90;999.90;;;8.70;99.90;;;;;;5059773;28;20417;-77
2023/04/14 02:42:56;;;;;;;1999.90;999.90;;;8.70;99.90;;;;;;5051147;28;20818;-77
2023/04/14 02:45:27;;;;;;;1999.90;999.90;;;9.00;99.90;;;;;;5062766;28;20481;-75
2023/04/14 02:47:57;;;;;;;1999.90;999.90;;;9.00;99.90;;;;;;5065498;28;20438;-77
2023/04/14 02:50:26;;;;;;;1999.90;999.90;;;9.00;99.90;;;;;;5068958;28;20489;-77
2023/04/14 02:52:55;;;;;;;1999.90;999.90;;;8.90;99.90;;;;;;5069453;28;20489;-77
2023/04/14 02:55:23;;;;;;;1999.90;999.90;;;8.90;99.90;;;;;;5067790;28;20465;-77
2023/04/14 02:57:51;;;;;;;1999.90;999.90;;;8.80;99.90;;;;;;5069045;28;20486;-77
2023/04/14 03:00:19;;;;;;;1999.90;999.90;;;8.80;99.90;;;;;;5068167;28;20852;-77
2023/04/14 03:02:46;;;;;;;1999.90;999.90;;;8.60;99.90;;;;;;5068057;28;20427;-77
2023/04/14 03:05:14;;;;;;;1999.90;999.90;;;8.60;99.90;;;;;;5065755;28;20428;-77
2023/04/14 03:07:42;;;;;;;1999.90;999.90;;;8.70;99.90;;;;;;5067456;28;20431;-77
2023/04/14 03:10:11;;;;;;;1999.90;999.90;;;8.80;99.90;;;;;;5068928;28;20444;-77
2023/04/14 03:12:39;;;;;;;1999.90;999.90;;;8.80;99.90;;;;;;5067564;28;20473;-75
2023/04/14 03:15:07;;;;;;;1999.90;999.90;;;8.80;99.90;;;;;;5068849;28;20514;-76
2023/04/14 03:17:37;;;;;;;1999.90;999.90;;;8.90;99.90;;;;;;5067289;28;20432;-75
2023/04/14 03:20:04;;;;;;;1999.90;999.90;;;9.00;99.90;;;;;;5068904;28;20435;-74
2023/04/14 03:22:34;;;;;;;1999.90;999.90;;;8.90;99.90;;;;;;5066354;28;20443;-74
2023/04/14 03:25:01;;;;;;;1999.90;999.90;;;8.90;99.90;;;;;;5067111;28;20935;-75
2023/04/14 03:27:31;;;;;;;1999.90;999.90;;;9.00;99.90;;;;;;5068725;28;20472;-74
2023/04/14 03:30:02;;;;;;;1999.90;999.90;;;8.90;99.90;;;;;;5068928;28;20435;-74
2023/04/14 03:32:38;;;;;;;1999.90;999.90;;;8.90;99.90;;;;;;5066434;28;20518;-77
2023/04/14 03:35:06;;;;;;;1999.90;999.90;;;8.90;99.90;;;;;;5069645;28;20427;-75
2023/04/14 03:37:38;;;;;;;1999.90;999.90;;;8.80;99.90;;;;;;5065471;28;20510;-75
2023/04/14 03:40:07;;;;;;;1999.90;999.90;;;8.80;99.90;;;;;;5068573;28;20431;-77
2023/04/14 03:42:38;;;;;;;1999.90;999.90;;;8.90;99.90;;;;;;5067804;28;20427;-75
2023/04/14 03:45:05;;;;;;;1999.90;999.90;;;8.80;99.90;;;;;;5067719;28;20476;-75
2023/04/14 03:47:32;;;;;;;1999.90;999.90;;;8.90;99.90;;;;;;5066355;28;20435;-77
2023/04/14 03:50:02;;;;;;;1999.90;999.90;;;8.70;99.90;;;;;;5068464;28;20439;-77
2023/04/14 03:52:33;;;;;;;1999.90;999.90;;;8.70;99.90;;;;;;5067175;28;20801;-77
2023/04/14 03:55:05;;;;;;;1999.90;999.90;;;8.70;99.90;;;;;;5067736;28;20484;-77
2023/04/14 03:57:32;;;;;;;1999.90;999.90;;;8.80;99.90;;;;;;5067219;28;20916;-76
2023/04/14 04:00:03;;;;;;;1999.90;999.90;;;8.80;99.90;;;;;;5066695;28;20920;-77
2023/04/14 04:02:31;;;;;;;1999.90;999.90;;;8.90;99.90;;;;;;5067835;28;20913;-78
2023/04/14 04:04:59;;;;;;;1999.90;999.90;;;8.90;99.90;;;;;;5073475;28;20442;-77
2023/04/14 04:07:27;;;;;;;1999.90;999.90;;;8.80;99.90;;;;;;5074150;28;20493;-77
2023/04/14 04:09:56;;;;;;;1999.90;999.90;;;8.80;99.90;;;;;;5074278;28;20484;-76
2023/04/14 04:12:24;;;;;;;1999.90;999.90;;;8.70;99.90;;;;;;5073509;28;20493;-77
2023/04/14 04:14:50;;;;;;;1999.90;999.90;;;8.60;99.90;;;;;;5073060;28;20556;-76
2023/04/14 04:17:22;;;;;;;1999.90;999.90;;;8.60;99.90;;;;;;5073280;28;20450;-77
2023/04/14 04:19:50;;;;;;;1999.90;999.90;;;8.70;99.90;;;;;;5074141;28;21183;-76
2023/04/14 04:22:20;;;;;;;1999.90;999.90;;;8.60;99.90;;;;;;5071297;28;20434;-77
2023/04/14 04:24:48;;;;;;;1999.90;999.90;;;8.70;99.90;;;;;;5073654;28;20480;-77
2023/04/14 04:27:15;;;;;;;1999.90;999.90;;;8.50;99.90;;;;;;5074288;28;20492;-76
2023/04/14 04:29:42;;;;;;;1999.90;999.90;;;8.50;99.90;;;;;;5073602;28;20514;-77
2023/04/14 04:32:09;;;;;;;1999.90;999.90;;;8.60;99.90;;;;;;5073216;28;20862;-77
2023/04/14 04:34:37;;;;;;;1999.90;999.90;;;8.60;99.90;;;;;;5073578;28;20431;-75
2023/04/14 04:37:05;;;;;;;1999.90;999.90;;;8.70;99.90;;;;;;5073145;28;20492;-77
2023/04/14 04:39:32;;;;;;;1999.90;999.90;;;8.70;99.90;;;;;;5070490;28;20896;-77
2023/04/14 04:42:02;;;;;;;1999.90;999.90;;;8.70;99.90;;;;;;5064427;28;20430;-76
2023/04/14 04:44:29;;;;;;;1999.90;999.90;;;8.70;99.90;;;;;;5074345;28;20834;-77
2023/04/14 04:46:56;;;;;;;1999.90;999.90;;;8.50;99.90;;;;;;5073978;28;20443;-77
2023/04/14 04:49:23;;;;;;;1999.90;999.90;;;8.20;99.90;;;;;;5073980;28;20913;-76
2023/04/14 04:51:51;;;;;;;1999.90;999.90;;;8.20;99.90;;;;;;5071756;28;20427;-77
2023/04/14 04:54:17;;;;;;;1999.90;999.90;;;8.20;99.90;;;;;;5074374;28;20481;-77
2023/04/14 04:56:45;;;;;;;1999.90;999.90;;;8.20;99.90;;;;;;5073515;28;20485;-77
2023/04/14 04:59:11;;;;;;;1999.90;999.90;;;8.30;99.90;;;;;;5072782;28;20455;-76
2023/04/14 05:01:38;;;;;;;1999.90;999.90;;;8.40;99.90;;;;;;5072643;28;20501;-76
2023/04/14 05:04:05;;;;;;;1999.90;999.90;;;8.70;99.90;;;;;;5074294;28;20439;-76
2023/04/14 05:06:35;;;;;;;1999.90;999.90;;;8.50;99.90;;;;;;5074049;28;20439;-77
2023/04/14 05:09:04;;;;;;;1999.90;999.90;;;8.40;99.90;;;;;;5073073;28;20518;-76
2023/04/14 05:11:31;;;;;;;1999.90;999.90;;;8.30;99.90;;;;;;5072747;28;20453;-76
2023/04/14 05:13:58;;;;;;;1999.90;999.90;;;8.40;99.90;;;;;;5073264;28;20430;-76
2023/04/14 05:16:25;;;;;;;1999.90;999.90;;;8.50;99.90;;;;;;5069722;28;20442;-76
2023/04/14 05:18:51;;;;;;;1999.90;999.90;;;8.60;99.90;;;;;;5070747;28;20544;-76
2023/04/14 05:21:18;;;;;;;1999.90;999.90;;;8.60;99.90;;;;;;5069416;28;20514;-76
2023/04/14 05:23:46;;;;;;;1999.90;999.90;;;8.60;99.90;;;;;;5070923;28;20496;-76
2023/04/14 05:26:15;;;;;;;1999.90;999.90;;;8.70;99.90;;;;;;5068065;28;20439;-76
2023/04/14 05:28:42;;;;;;;1999.90;999.90;;;8.80;99.90;;;;;;5069445;28;20439;-76
2023/04/14 05:31:09;;;;;;;1999.90;999.90;;;8.70;99.90;;;;;;5070817;28;20489;-76
2023/04/14 05:33:36;;;;;;;1999.90;999.90;;;8.80;99.90;;;;;;5069840;28;20427;-78
2023/04/14 05:36:02;;;;;;;1999.90;999.90;;;8.90;99.90;;;;;;5070452;28;20489;-76
2023/04/14 05:38:29;;;;;;;1999.90;999.90;;;8.90;99.90;;;;;;5063123;28;20916;-76
2023/04/14 05:40:56;;;;;;;1999.90;999.90;;;8.90;99.90;;;;;;5070195;28;20431;-78
2023/04/14 05:43:24;;;;;;;1999.90;999.90;;;9.00;99.90;;;;;;5069616;28;20428;-76
2023/04/14 05:45:50;;;;;;;1999.90;999.90;;;9.00;99.90;;;;;;5070549;28;20466;-76
2023/04/14 05:48:17;;;;;;;1999.90;999.90;;;8.90;99.90;;;;;;5070544;28;20442;-76
2023/04/14 05:50:44;;;;;;;1999.90;999.90;;;8.90;99.90;;;;;;5069050;28;20431;-78
2023/04/14 05:53:11;;;;;;;1999.90;999.90;;;8.90;99.90;;;;;;5070197;28;20953;-79
2023/04/14 05:55:39;;;;;;;1999.90;999.90;;;9.00;99.90;;;;;;5069328;28;20640;-77
2023/04/14 05:58:06;;;;;;;1999.90;999.90;;;9.00;99.90;;;;;;5070141;28;20424;-75
2023/04/14 06:00:34;;;;;;;1999.90;999.90;;;9.10;99.90;;;;;;5065762;28;20523;-77
2023/04/14 06:03:01;;;;;;;1999.90;999.90;;;9.20;99.90;;;;;;5070813;28;20506;-76
2023/04/14 06:05:28;;;;;;;1999.90;999.90;;;9.30;99.90;;;;;;5072684;28;20461;-78
2023/04/14 06:07:55;;;;;;;1999.90;999.90;;;9.20;99.90;;;;;;5067642;28;20458;-75
2023/04/14 06:10:21;;;;;;;1999.90;999.90;;;9.20;99.90;;;;;;5068765;28;20431;-78
2023/04/14 06:12:48;;;;;;;1999.90;999.90;;;9.30;99.90;;;;;;5069115;28;20435;-77
2023/04/14 06:15:14;;;;;;;1999.90;999.90;;;9.20;99.90;;;;;;5067885;28;20546;-73
2023/04/14 06:17:46;;;;;;;1999.90;999.90;;;9.30;99.90;;;;;;5071532;28;20493;-79
2023/04/14 06:20:13;;;;;;;1999.90;999.90;;;9.20;99.90;;;;;;5069137;28;20991;-79
2023/04/14 06:22:39;;;;;;;1999.90;999.90;;;9.40;99.90;;;;;;5071841;28;20955;-77
2023/04/14 06:25:06;;;;;;;1999.90;999.90;;;9.40;99.90;;;;;;5071591;28;20415;-77
2023/04/14 06:27:33;;;;;;;1999.90;999.90;;;9.50;99.90;;;;;;5069576;28;20528;-76
2023/04/14 06:30:00;;;;;;;1999.90;999.90;;;9.60;99.90;;;;;;5071164;28;20427;-77
2023/04/14 06:32:26;;;;;;;1999.90;999.90;;;9.50;99.90;;;;;;5071333;28;20477;-77
2023/04/14 06:34:54;;;;;;;1999.90;999.90;;;9.60;99.90;;;;;;5070254;28;20504;-77
2023/04/14 06:37:21;;;;;;;1999.90;999.90;;;9.60;99.90;;;;;;5067768;28;20480;-77
2023/04/14 06:39:48;;;;;;;1999.90;999.90;;;9.60;99.90;;;;;;5068179;28;20432;-75
2023/04/14 06:42:14;;;;;;;1999.90;999.90;;;9.70;99.90;;;;;;5069295;28;21543;-75
2023/04/14 06:44:41;;;;;;;1999.90;999.90;;;9.70;99.90;;;;;;5069374;28;20436;-75
2023/04/14 06:47:08;;;;;;;1999.90;999.90;;;9.70;99.90;;;;;;5070927;28;20569;-77
2023/04/14 06:49:36;;;;;;;1999.90;999.90;;;9.80;99.90;;;;;;5073389;28;20485;-79
2023/04/14 06:52:05;;;;;;;1999.90;999.90;;;9.80;99.90;;;;;;5066809;28;20439;-77
2023/04/14 06:54:33;;;;;;;1999.90;999.90;;;9.80;99.90;;;;;;5067596;28;20514;-78
2023/04/14 06:57:00;;;;;;;1999.90;999.90;;;9.70;99.90;;;;;;5070526;28;20431;-77
2023/04/14 06:59:28;;;;;;;1999.90;999.90;;;9.80;99.90;;;;;;5070745;28;20927;-75
2023/04/14 07:01:57;;;;;;;1999.90;999.90;;;9.70;99.90;;;;;;5068789;28;20438;-76
2023/04/14 07:04:24;;;;;;;1999.90;999.90;;;9.70;99.90;;;;;;5068732;28;20450;-74
2023/04/14 07:06:50;;;;;;;1999.90;999.90;;;9.90;99.90;;;;;;5066632;28;20832;-72
2023/04/14 07:09:19;;;;;;;1999.90;999.90;;;10.10;99.90;;;;;;5068391;28;20511;-76
2023/04/14 07:11:46;;;;;;;1999.90;999.90;;;10.20;99.90;;;;;;5068923;28;20438;-76
2023/04/14 07:14:13;;;;;;;1999.90;999.90;;;10.20;99.90;;;;;;5065633;28;20423;-77
2023/04/14 07:16:39;;;;;;;1999.90;999.90;;;10.20;99.90;;;;;;5068364;28;20439;-78
2023/04/14 07:19:07;;;;;;;1999.90;999.90;;;10.20;99.90;;;;;;5067531;28;20431;-77
2023/04/14 07:21:34;;;;;;;1999.90;999.90;;;10.20;99.90;;;;;;5068570;28;20431;-77
2023/04/14 07:24:00;;;;;;;1999.90;999.90;;;10.30;99.90;;;;;;5068751;28;20427;-79
2023/04/14 07:26:28;;;;;;;1999.90;999.90;;;10.20;99.90;;;;;;5067750;28;20441;-77
2023/04/14 07:28:55;;;;;;;1999.90;999.90;;;10.30;99.90;;;;;;5068605;28;20435;-78
2023/04/14 07:31:22;;;;;;;1999.90;999.90;;;10.50;99.90;;;;;;5067545;28;20441;-75
2023/04/14 07:33:49;;;;;;;1999.90;999.90;;;10.60;99.90;;;;;;5061508;28;21406;-77
2023/04/14 07:36:15;;;;;;;1999.90;999.90;;;10.50;99.90;;;;;;5067159;28;20481;-74
2023/04/14 07:38:42;;;;;;;1999.90;999.90;;;10.50;99.90;;;;;;5066914;28;20435;-74
2023/04/14 07:41:09;;;;;;;1999.90;999.90;;;10.80;99.90;;;;;;5067209;28;20431;-77
2023/04/14 07:43:38;;;;;;;1999.90;999.90;;;11.00;99.90;;;;;;5068011;28;20434;-77
2023/04/14 07:46:07;;;;;;;1999.90;999.90;;;10.90;99.90;;;;;;5067973;28;20432;-76
2023/04/14 07:48:35;;;;;;;1999.90;999.90;;;10.80;99.90;;;;;;5065696;28;21013;-77
2023/04/14 07:51:02;;;;;;;1999.90;999.90;;;10.70;99.90;;;;;;5064165;28;20431;-78
2023/04/14 07:53:28;;;;;;;1999.90;999.90;;;10.90;99.90;;;;;;5068262;28;20438;-77
2023/04/14 07:55:55;;;;;;;1999.90;999.90;;;10.90;99.90;;;;;;5068357;28;20434;-74
2023/04/14 07:58:21;;;;;;;1999.90;999.90;;;11.00;99.90;;;;;;5068327;28;20856;-74
2023/04/14 08:00:50;;;;;;;1999.90;999.90;;;10.90;99.90;;;;;;5064199;28;20431;-76
2023/04/14 08:03:16;;;;;;;1999.90;999.90;;;10.90;99.90;;;;;;5067956;28;20431;-76
2023/04/14 08:05:43;;;;;;;1999.90;999.90;;;10.90;99.90;;;;;;5067907;28;20925;-74
2023/04/14 08:08:11;;;;;;;1999.90;999.90;;;11.00;99.90;;;;;;5067055;28;21050;-76
2023/04/14 08:10:38;;;;;;;1999.90;999.90;;;11.20;99.90;;;;;;5064807;28;20838;-77
2023/04/14 08:13:04;;;;;;;1999.90;999.90;;;11.20;99.90;;;;;;5066810;28;20428;-75
2023/04/14 08:15:31;;;;;;;1999.90;999.90;;;11.20;99.90;;;;;;5064612;28;21021;-77
2023/04/14 08:17:59;;;;;;;1999.90;999.90;;;11.10;99.90;;;;;;5066885;28;20988;-78
2023/04/14 08:20:26;;;;;;;1999.90;999.90;;;11.20;99.90;;;;;;5065050;28;20427;-77
2023/04/14 08:22:53;;;;;;;1999.90;999.90;;;11.30;99.90;;;;;;5070435;28;20415;-76
2023/04/14 08:25:20;;;;;;;1999.90;999.90;;;11.30;99.90;;;;;;5050312;28;20776;-77
2023/04/14 08:27:47;;;;;;;1999.90;999.90;;;11.20;99.90;;;;;;5052339;28;20458;-77
2023/04/14 08:30:14;;;;;;;1999.90;999.90;;;11.30;99.90;;;;;;5080211;28;20420;-77
2023/04/14 08:32:40;;;;;;;1999.90;999.90;;;11.20;99.90;;;;;;5089627;28;20984;-78
2023/04/14 08:35:09;;;;;;;1999.90;999.90;;;11.10;99.90;;;;;;5074404;28;20431;-77
2023/04/14 08:37:35;;;;;;;1999.90;999.90;;;11.00;99.90;;;;;;5068620;28;20435;-78
2023/04/14 08:40:03;;;;;;;1999.90;999.90;;;11.00;99.90;;;;;;5061930;28;20517;-76
2023/04/14 08:42:31;;;;;;;1999.90;999.90;;;11.00;99.90;;;;;;5068798;28;20438;-78
2023/04/14 08:44:57;;;;;;;1999.90;999.90;;;11.00;99.90;;;;;;5069929;28;20820;-79
2023/04/14 08:47:26;;;;;;;1999.90;999.90;;;11.20;99.90;;;;;;5070866;28;20411;-77
2023/04/14 08:49:57;;;;;;;1999.90;999.90;;;11.20;99.90;;;;;;5072892;28;20852;-78
2023/04/14 08:52:28;;;;;;;1999.90;999.90;;;11.30;99.90;;;;;;5073757;28;20423;-77
2023/04/14 08:54:56;;;;;;;1999.90;999.90;;;11.30;99.90;;;;;;5072264;28;20461;-77
2023/04/14 08:57:25;;;;;;;1999.90;999.90;;;11.50;99.90;;;;;;5085141;28;20970;-76
2023/04/14 08:59:55;;;;;;;1999.90;999.90;;;11.40;99.90;;;;;;5093635;28;20508;-77
2023/04/14 09:02:21;;;;;;;1999.90;999.90;;;11.60;99.90;;;;;;5080053;28;20439;-76
2023/04/14 09:04:49;;;;;;;1999.90;999.90;;;11.70;99.90;;;;;;5071471;28;20857;-76
2023/04/14 09:07:16;;;;;;;1999.90;999.90;;;11.70;99.90;;;;;;5071249;28;20473;-76
2023/04/14 09:09:45;;;;;;;1999.90;999.90;;;11.70;99.90;;;;;;5072107;28;20465;-77
2023/04/14 09:12:12;;;;;;;1999.90;999.90;;;11.90;99.90;;;;;;5079072;28;20484;-77
2023/04/14 09:14:40;;;;;;;1999.90;999.90;;;12.10;99.90;;;;;;5070666;28;20435;-78
2023/04/14 09:17:07;;;;;;;1999.90;999.90;;;12.20;99.90;;;;;;5070879;28;20470;-76
2023/04/14 09:19:34;;;;;;;1999.90;999.90;;;12.30;99.90;;;;;;5070508;28;20913;-76
2023/04/14 09:22:01;;;;;;;1999.90;999.90;;;12.30;99.90;;;;;;5068381;28;20530;-76
2023/04/14 09:24:28;;;;;;;1999.90;999.90;;;12.30;99.90;;;;;;5070629;28;20431;-74
2023/04/14 09:26:56;;;;;;;1999.90;999.90;;;12.20;99.90;;;;;;5070736;28;20436;-76
2023/04/14 09:29:23;;;;;;;1999.90;999.90;;;12.30;99.90;;;;;;5069379;28;20431;-74
2023/04/14 09:31:50;;;;;;;1999.90;999.90;;;12.20;99.90;;;;;;5069943;28;20431;-76
2023/04/14 09:34:17;;;;;;;1999.90;999.90;;;12.30;99.90;;;;;;5069475;28;20936;-76
2023/04/14 09:36:59;;;;;;;1999.90;999.90;;;12.30;99.90;;;;;;5069440;28;20459;-76
2023/04/14 09:39:26;;;;;;;1999.90;999.90;;;12.30;99.90;;;;;;5068931;28;20435;-76
2023/04/14 09:41:53;;;;;;;1999.90;999.90;;;12.40;99.90;;;;;;5069010;28;20447;-74
2023/04/14 09:44:21;;;;;;;1999.90;999.90;;;12.50;99.90;;;;;;5068797;28;20967;-73
2023/04/14 09:47:02;;;;;;;1999.90;999.90;;;12.60;99.90;;;;;;5069303;28;20434;-76
2023/04/14 09:49:29;;;;;;;1999.90;999.90;;;12.60;99.90;;;;;;5069716;28;20427;-73
2023/04/14 09:52:02;;;;;;;1999.90;999.90;;;12.40;99.90;;;;;;5069780;28;20518;-76
2023/04/14 09:54:29;;;;;;;1999.90;999.90;;;12.40;99.90;;;;;;5070221;28;20424;-73
2023/04/14 09:56:56;;;;;;;1999.90;999.90;;;12.50;99.90;;;;;;5065281;28;20431;-76
2023/04/14 09:59:35;;;;;;;1999.90;999.90;;;12.70;99.90;;;;;;5072242;28;20422;-74
2023/04/14 10:02:05;;;;;;;1999.90;999.90;;;12.60;99.90;;;;;;5071805;28;20439;-78
2023/04/14 10:04:32;;;;;;;1999.90;999.90;;;12.80;99.90;;;;;;5079647;28;21101;-76
2023/04/14 10:06:59;;;;;;;1999.90;999.90;;;12.70;99.90;;;;;;5088713;28;20888;-75
2023/04/14 10:09:27;;;;;;;1999.90;999.90;;;12.60;99.90;;;;;;5093030;28;20410;-75
2023/04/14 10:12:08;;;;;;;1999.90;999.90;;;12.70;99.90;;;;;;5093702;28;20482;-77
2023/04/14 10:14:37;;;;;;;1999.90;999.90;;;12.40;99.90;;;;;;5094023;28;20898;-80
2023/04/14 10:17:04;;;;;;;1999.90;999.90;;;12.30;99.90;;;;;;5087261;28;20438;-78
2023/04/14 10:19:31;;;;;;;1999.90;999.90;;;12.20;99.90;;;;;;5077877;28;20434;-76
2023/04/14 10:21:58;;;;;;;1999.90;999.90;;;12.30;99.90;;;;;;5070550;28;20435;-77
2023/04/14 10:24:25;;;;;;;1999.90;999.90;;;12.40;99.90;;;;;;5066481;28;20432;-75
2023/04/14 10:26:53;;;;;;;1999.90;999.90;;;12.60;99.90;;;;;;5069482;28;20497;-76
2023/04/14 10:29:20;;;;;;;1999.90;999.90;;;12.60;99.90;;;;;;5069244;28;20435;-77
2023/04/14 10:31:52;;;;;;;1999.90;999.90;;;12.80;99.90;;;;;;5077294;28;20578;-76
2023/04/14 10:34:20;;;;;;;1999.90;999.90;;;12.80;99.90;;;;;;5084016;28;20426;-78
2023/04/14 10:36:47;;;;;;;1999.90;999.90;;;12.80;99.90;;;;;;5092574;28;20884;-78
2023/04/14 10:39:21;;;;;;;1999.90;999.90;;;12.90;99.90;;;;;;5092451;28;20501;-79
2023/04/14 10:41:48;;;;;;;1999.90;999.90;;;12.90;99.90;;;;;;5091823;28;20410;-77
2023/04/14 10:44:26;;;;;;;1999.90;999.90;;;12.90;99.90;;;;;;5086739;28;20420;-74
2023/04/14 10:46:55;;;;;;;1999.90;999.90;;;13.00;99.90;;;;;;5082851;28;20440;-75
2023/04/14 10:49:28;;;;;;;1999.90;999.90;;;13.00;99.90;;;;;;5076054;28;20817;-75
2023/04/14 10:51:57;;;;;;;1999.90;999.90;;;13.10;99.90;;;;;;5087043;28;20410;-78
2023/04/14 10:54:24;;;;;;;1999.90;999.90;;;13.10;99.90;;;;;;5091401;28;20421;-77
2023/04/14 10:57:09;;;;;;;1999.90;999.90;;;13.10;99.90;;;;;;5115907;22;20491;-77
2023/04/14 10:59:35;;;;;;;1999.90;999.90;;;13.20;99.90;;;;;;5063170;28;20461;-75
2023/04/14 11:02:03;;;;;;;1999.90;999.90;;;13.40;99.90;;;;;;5060492;28;21018;-76
2023/04/14 11:04:30;;;;;;;1999.90;999.90;;;13.40;99.90;;;;;;5054167;28;21044;-77
2023/04/14 11:06:58;;;;;;;1999.90;999.90;;;13.40;99.90;;;;;;5059166;28;20431;-74
2023/04/14 11:09:31;;;;;;;1999.90;999.90;;;13.60;99.90;;;;;;5063844;28;20429;-75
2023/04/14 11:12:04;;;;;;;1999.90;999.90;;;13.70;99.90;;;;;;5064966;28;20443;-75
2023/04/14 11:14:32;;;;;;;1999.90;999.90;;;13.50;99.90;;;;;;5065098;28;20947;-75
2023/04/14 11:17:00;;;;;;;1999.90;999.90;;;13.60;99.90;;;;;;5068733;28;20519;-75
2023/04/14 11:19:29;;;;;;;1999.90;999.90;;;13.70;99.90;;;;;;5068528;28;20427;-74
2023/04/14 11:21:56;;;;;;;1999.90;999.90;;;14.40;99.90;;;;;;5067888;28;20435;-75
2023/04/14 11:24:23;;;;;;;1999.90;999.90;;;14.10;99.90;;;;;;5069208;28;20430;-74
2023/04/14 11:26:52;;;;;;;1999.90;999.90;;;14.20;99.90;;;;;;5057330;28;20502;-74
2023/04/14 11:29:18;;;;;;;1999.90;999.90;;;14.40;99.90;;;;;;5069228;28;20463;-71
2023/04/14 11:31:47;;;;;;;1999.90;999.90;;;14.60;99.90;;;;;;5067251;28;21164;-74
2023/04/14 11:34:14;;;;;;;1999.90;999.90;;;15.00;99.90;;;;;;5068504;28;20481;-74
2023/04/14 11:36:42;;;;;;;1999.90;999.90;;;14.90;99.90;;;;;;5068181;28;20437;-71
2023/04/14 11:39:10;;;;;;;1999.90;999.90;;;15.00;99.90;;;;;;5066902;28;20486;-75
2023/04/14 11:41:37;;;;;;;1999.90;999.90;;;14.70;99.90;;;;;;5066801;28;20439;-75
2023/04/14 11:44:04;;;;;;;1999.90;999.90;;;14.90;99.90;;;;;;5069108;28;20783;-75
2023/04/14 11:46:32;;;;;;;1999.90;999.90;;;15.00;99.90;;;;;;5068131;28;20439;-74
2023/04/14 11:48:58;;;;;;;1999.90;999.90;;;14.60;99.90;;;;;;5059926;28;20486;-76
2023/04/14 11:51:31;;;;;;;1999.90;999.90;;;15.00;99.90;;;;;;5063140;28;20435;-75
2023/04/14 11:54:00;;;;;;;1999.90;999.90;;;14.90;99.90;;;;;;5067679;28;20775;-77
2023/04/14 11:56:27;;;;;;;1999.90;999.90;;;15.00;99.90;;;;;;5062395;28;20433;-75
2023/04/14 11:59:00;;;;;;;1999.90;999.90;;;14.90;99.90;;;;;;5068644;28;20427;-75
2023/04/14 12:01:28;;;;;;;1999.90;999.90;;;15.10;99.90;;;;;;5061536;28;20436;-73
2023/04/14 12:03:55;;;;;;;1999.90;999.90;;;14.90;99.90;;;;;;5067907;28;20423;-75
2023/04/14 12:06:22;;;;;;;1999.90;999.90;;;14.70;99.90;;;;;;5064595;28;20441;-73
2023/04/14 12:08:51;;;;;;;1999.90;999.90;;;14.40;99.90;;;;;;5068174;28;20528;-75